createdAt,value
2022-08-07T00:00:03.469Z,75.41
2022-08-07T00:01:44.306Z,75.44
2022-08-07T00:02:41.438Z,75.95
2022-08-07T00:03:49.477Z,76.38
2022-08-07T00:04:51.613Z,76.57
2022-08-07T00:05:54.406Z,76.65
2022-08-07T00:06:56.568Z,76.83
2022-08-07T00:08:04.220Z,76.98
2022-08-07T00:09:16.368Z,76.93
2022-08-07T00:10:27.145Z,77.18
2022-08-07T00:11:33.068Z,77.21
2022-08-07T00:12:35.525Z,77.32
2022-08-07T00:13:58.401Z,77.52
2022-08-07T00:15:01.841Z,77.18
2022-08-07T00:16:06.819Z,77.75
2022-08-07T00:17:09.639Z,77.63
2022-08-07T00:18:19.628Z,77.57
2022-08-07T00:19:25.899Z,77.60
2022-08-07T00:20:29.879Z,77.59
2022-08-07T00:21:57.262Z,77.71
2022-08-07T00:22:58.833Z,77.67
2022-08-07T00:24:01.148Z,77.11
2022-08-07T00:25:05.261Z,77.29
2022-08-07T00:26:18.680Z,77.25
2022-08-07T00:27:52.868Z,77.73
2022-08-07T00:28:56.979Z,77.45
2022-08-07T00:29:59.278Z,78.01
2022-08-07T00:31:12.224Z,77.83
2022-08-07T00:32:15.382Z,77.40
2022-08-07T00:33:17.838Z,77.75
2022-08-07T00:34:19.996Z,77.66
2022-08-07T00:35:24.153Z,78.07
2022-08-07T00:36:26.312Z,78.21
2022-08-07T00:37:48.097Z,77.98
2022-08-07T00:38:50.715Z,78.02
2022-08-07T00:39:56.563Z,78.12
2022-08-07T00:40:59.502Z,77.62
2022-08-07T00:42:05.427Z,78.09
2022-08-07T00:43:12.855Z,78.23
2022-08-07T00:44:33.692Z,79.34
2022-08-07T00:45:35.897Z,78.88
2022-08-07T00:46:38.231Z,78.79
2022-08-07T00:48:09.587Z,78.61
2022-08-07T00:49:04.269Z,78.95
2022-08-07T00:50:19.154Z,78.94
2022-08-07T00:51:58.331Z,79.15
2022-08-07T00:52:53.599Z,79.34
2022-08-07T00:53:56.058Z,79.46
2022-08-07T00:54:58.203Z,79.55
2022-08-07T00:56:03.992Z,79.93
2022-08-07T00:57:11.031Z,79.98
2022-08-07T00:58:14.419Z,79.80
2022-08-07T00:59:17.666Z,80.17
2022-08-07T01:00:23.282Z,80.40
2022-08-07T01:01:26.259Z,80.62
2022-08-07T01:02:29.806Z,81.09
2022-08-07T01:03:55.865Z,81.26
2022-08-07T01:04:54.325Z,81.71
2022-08-07T01:06:01.526Z,81.65
2022-08-07T01:07:04.728Z,81.84
2022-08-07T01:08:09.021Z,82.08
2022-08-07T01:09:11.721Z,81.90
2022-08-07T01:10:33.784Z,81.64
2022-08-07T01:12:23.499Z,81.69
2022-08-07T01:12:59.892Z,82.52
2022-08-07T01:14:03.315Z,81.88
2022-08-07T01:15:11.922Z,82.10
2022-08-07T01:16:30.478Z,81.66
2022-08-07T01:17:35.095Z,82.00
2022-08-07T01:18:38.120Z,82.21
2022-08-07T01:19:42.032Z,82.25
2022-08-07T01:21:22.513Z,81.92
2022-08-07T01:22:29.495Z,82.14
2022-08-07T01:23:39.473Z,82.00
2022-08-07T01:24:47.553Z,82.65
2022-08-07T01:25:55.337Z,82.59
2022-08-07T01:27:00.119Z,82.59
2022-08-07T01:28:02.997Z,82.61
2022-08-07T01:29:06.171Z,83.24
2022-08-07T01:30:10.894Z,82.88
2022-08-07T01:31:15.533Z,82.86
2022-08-07T01:32:22.461Z,83.12
2022-08-07T01:33:47.656Z,82.76
2022-08-07T01:34:51.356Z,83.10
2022-08-07T01:36:06.201Z,83.25
2022-08-07T01:37:13.783Z,83.28
2022-08-07T01:38:24.822Z,83.20
2022-08-07T01:39:40.418Z,83.30
2022-08-07T01:41:00.854Z,83.47
2022-08-07T01:42:37.237Z,83.70
2022-08-07T01:43:26.820Z,83.52
2022-08-07T01:44:37.524Z,83.54
2022-08-07T01:45:40.243Z,83.94
2022-08-07T01:46:49.827Z,83.93
2022-08-07T01:48:19.445Z,84.06
2022-08-07T01:49:16.136Z,84.02
2022-08-07T01:50:29.031Z,84.38
2022-08-07T01:52:02.603Z,84.50
2022-08-07T01:52:58.478Z,84.18
2022-08-07T01:54:12.497Z,83.99
2022-08-07T01:55:28.814Z,84.04
2022-08-07T01:56:49.904Z,83.71
2022-08-07T01:58:05.616Z,84.24
2022-08-07T01:59:23.331Z,83.77
2022-08-07T02:00:29.654Z,84.25
2022-08-07T02:02:01.929Z,84.57
2022-08-07T02:03:21.274Z,84.28
2022-08-07T02:04:40.231Z,84.80
2022-08-07T02:06:08.854Z,84.86
2022-08-07T02:07:50.036Z,84.56
2022-08-07T02:09:01.451Z,84.81
2022-08-07T02:10:08.948Z,84.95
2022-08-07T02:11:30.797Z,84.43
2022-08-07T02:12:46.426Z,85.07
2022-08-07T02:14:02.533Z,85.26
2022-08-07T02:15:08.824Z,85.08
2022-08-07T02:16:14.941Z,85.10
2022-08-07T02:17:27.470Z,85.00
2022-08-07T02:18:33.995Z,85.24
2022-08-07T02:20:05.156Z,85.05
2022-08-07T02:21:08.688Z,84.90
2022-08-07T02:22:25.955Z,84.50
2022-08-07T02:23:30.752Z,84.04
2022-08-07T02:24:39.829Z,83.92
2022-08-07T02:26:31.474Z,83.96
2022-08-07T02:27:14.892Z,83.27
2022-08-07T02:28:25.576Z,83.56
2022-08-07T02:29:34.540Z,82.85
2022-08-07T02:30:48.732Z,83.03
2022-08-07T02:31:54.720Z,81.82
2022-08-07T02:33:00.678Z,79.43
2022-08-07T02:34:11.546Z,77.12
2022-08-07T02:36:29.683Z,74.59
2022-08-07T02:36:50.539Z,72.96
2022-08-07T02:37:53.832Z,71.89
2022-08-07T02:38:59.224Z,69.95
2022-08-07T02:40:29.979Z,68.71
2022-08-07T02:41:37.197Z,66.85
2022-08-07T02:42:42.397Z,65.87
2022-08-07T02:43:48.843Z,63.77
2022-08-07T02:44:55.155Z,63.22
2022-08-07T02:46:07.596Z,62.23
2022-08-07T02:47:13.265Z,61.21
2022-08-07T02:48:26.101Z,61.25
2022-08-07T02:49:58.491Z,60.31
2022-08-07T02:50:56.218Z,59.77
2022-08-07T02:52:01.567Z,59.37
2022-08-07T02:53:10.916Z,57.30
2022-08-07T02:54:16.932Z,57.43
2022-08-07T02:55:28.422Z,56.17
2022-08-07T02:56:48.858Z,55.22
2022-08-07T02:57:54.793Z,55.75
2022-08-07T02:59:04.272Z,55.03
2022-08-07T03:00:11.331Z,54.55
2022-08-07T03:01:18.888Z,54.26
2022-08-07T03:02:54.290Z,53.04
2022-08-07T03:03:58.841Z,52.98
2022-08-07T03:05:09.844Z,51.67
2022-08-07T03:06:16.621Z,50.67
2022-08-07T03:07:43.065Z,49.62
2022-08-07T03:08:52.518Z,49.86
2022-08-07T03:09:55.267Z,49.41
2022-08-07T03:10:58.410Z,49.04
2022-08-07T03:12:14.219Z,48.00
2022-08-07T03:13:29.501Z,47.72
2022-08-07T03:14:52.026Z,46.71
2022-08-07T03:15:58.377Z,48.31
2022-08-07T03:17:05.104Z,50.00
2022-08-07T03:18:08.702Z,52.90
2022-08-07T03:19:13.699Z,53.12
2022-08-07T03:20:17.142Z,54.85
2022-08-07T03:21:20.488Z,55.35
2022-08-07T03:22:29.625Z,55.61
2022-08-07T03:24:18.360Z,56.81
2022-08-07T03:24:57.832Z,57.90
2022-08-07T03:26:02.025Z,57.93
2022-08-07T03:27:08.890Z,58.77
2022-08-07T03:28:38.391Z,58.69
2022-08-07T03:29:51.452Z,59.86
2022-08-07T03:31:19.144Z,60.32
2022-08-07T03:32:37.241Z,62.36
2022-08-07T03:33:43.567Z,62.97
2022-08-07T03:35:16.968Z,64.23
2022-08-07T03:36:14.796Z,64.55
2022-08-07T03:37:21.535Z,65.46
2022-08-07T03:38:33.322Z,65.27
2022-08-07T03:39:56.550Z,66.16
2022-08-07T03:41:02.489Z,66.64
2022-08-07T03:42:07.699Z,66.48
2022-08-07T03:43:14.403Z,66.32
2022-08-07T03:44:34.199Z,65.51
2022-08-07T03:45:43.290Z,65.34
2022-08-07T03:47:13.949Z,65.49
2022-08-07T03:48:12.449Z,65.66
2022-08-07T03:49:14.819Z,65.79
2022-08-07T03:50:22.996Z,65.69
2022-08-07T03:51:47.117Z,65.77
2022-08-07T03:52:56.199Z,66.12
2022-08-07T03:54:32.995Z,65.90
2022-08-07T03:55:22.565Z,65.50
2022-08-07T03:56:32.742Z,65.80
2022-08-07T03:58:34.485Z,66.50
2022-08-07T03:59:09.551Z,64.82
2022-08-07T04:00:17.706Z,64.52
2022-08-07T04:01:28.988Z,61.30
2022-08-07T04:02:31.407Z,57.55
2022-08-07T04:03:38.873Z,53.73
2022-08-07T04:04:52.576Z,51.46
2022-08-07T04:05:58.829Z,49.30
2022-08-07T04:07:16.595Z,48.28
2022-08-07T04:08:22.941Z,45.85
2022-08-07T04:09:29.446Z,44.74
2022-08-07T04:10:54.472Z,42.93
2022-08-07T04:12:26.383Z,42.26
2022-08-07T04:14:10.952Z,40.72
2022-08-07T04:14:59.397Z,39.84
2022-08-07T04:16:04.653Z,39.40
2022-08-07T04:17:16.496Z,38.80
2022-08-07T04:18:58.352Z,38.43
2022-08-07T04:19:52.861Z,38.65
2022-08-07T04:20:59.153Z,38.12
2022-08-07T04:22:12.121Z,37.19
2022-08-07T04:23:19.550Z,36.50
2022-08-07T04:24:33.882Z,37.22
2022-08-07T04:25:42.191Z,36.05
2022-08-07T04:26:47.720Z,35.04
2022-08-07T04:27:59.382Z,34.99
2022-08-07T04:29:07.740Z,36.43
2022-08-07T04:30:21.527Z,34.52
2022-08-07T04:32:03.061Z,34.21
2022-08-07T04:33:15.442Z,34.44
2022-08-07T04:34:24.094Z,33.49
2022-08-07T04:35:38.425Z,33.62
2022-08-07T04:36:45.542Z,32.43
2022-08-07T04:38:03.181Z,32.11
2022-08-07T04:39:10.570Z,32.02
2022-08-07T04:40:13.528Z,31.42
2022-08-07T04:41:19.064Z,31.31
2022-08-07T04:42:28.934Z,31.42
2022-08-07T04:44:09.947Z,30.55
2022-08-07T04:45:03.231Z,30.33
2022-08-07T04:46:35.837Z,30.45
2022-08-07T04:47:56.997Z,29.66
2022-08-07T04:49:18.344Z,29.84
2022-08-07T04:50:39.619Z,28.70
2022-08-07T04:52:00.808Z,29.59
2022-08-07T04:53:39.993Z,29.88
2022-08-07T04:55:15.273Z,29.38
2022-08-07T04:58:11.623Z,29.04
2022-08-07T04:59:17.181Z,29.08
2022-08-07T05:00:18.674Z,28.72
2022-08-07T05:01:43.287Z,28.24
2022-08-07T05:03:17.333Z,27.02
2022-08-07T05:04:50.216Z,27.74
2022-08-07T05:06:19.879Z,27.82
2022-08-07T05:07:48.638Z,27.15
2022-08-07T05:09:01.425Z,27.03
2022-08-07T05:10:16.805Z,27.29
2022-08-07T05:11:56.914Z,26.64
2022-08-07T05:14:44.806Z,26.71
2022-08-07T05:14:52.324Z,27.23
2022-08-07T05:16:00.027Z,27.60
2022-08-07T05:17:11.858Z,26.37
2022-08-07T05:18:21.075Z,26.82
2022-08-07T05:19:44.024Z,26.54
2022-08-07T05:20:52.015Z,26.34
2022-08-07T05:22:01.772Z,26.05
2022-08-07T05:23:20.587Z,26.20
2022-08-07T05:24:40.301Z,26.11
2022-08-07T05:26:11.523Z,25.80
2022-08-07T05:28:02.108Z,26.65
2022-08-07T05:28:40.569Z,26.11
2022-08-07T05:29:50.999Z,26.23
2022-08-07T05:30:57.375Z,25.96
2022-08-07T05:32:02.490Z,25.08
2022-08-07T05:33:09.860Z,25.25
2022-08-07T05:34:15.733Z,25.79
2022-08-07T05:35:33.054Z,24.63
2022-08-07T05:36:39.624Z,24.31
2022-08-07T05:38:08.876Z,23.60
2022-08-07T05:40:05.914Z,24.25
2022-08-07T05:40:50.675Z,24.62
2022-08-07T05:42:01.175Z,23.98
2022-08-07T05:43:06.705Z,24.05
2022-08-07T05:44:14.281Z,23.87
2022-08-07T05:45:46.056Z,24.44
2022-08-07T05:46:51.227Z,24.26
2022-08-07T05:48:02.454Z,23.25
2022-08-07T05:49:14.474Z,24.11
2022-08-07T05:50:24.250Z,22.90
2022-08-07T05:51:31.820Z,24.33
2022-08-07T05:52:35.968Z,24.02
2022-08-07T05:54:09.649Z,23.76
2022-08-07T05:55:10.358Z,22.79
2022-08-07T05:56:20.093Z,23.71
2022-08-07T05:57:37.735Z,24.51
2022-08-07T05:58:52.386Z,24.46
2022-08-07T06:00:01.314Z,24.12
2022-08-07T06:01:16.946Z,23.72
2022-08-07T06:02:30.504Z,23.87
2022-08-07T06:03:57.317Z,24.02
2022-08-07T06:05:06.201Z,24.04
2022-08-07T06:06:09.923Z,23.96
2022-08-07T06:07:23.150Z,24.11
2022-08-07T06:08:44.415Z,24.66
2022-08-07T06:10:05.579Z,23.70
2022-08-07T06:11:09.415Z,24.56
2022-08-07T06:12:12.500Z,25.51
2022-08-07T06:13:18.414Z,26.07
2022-08-07T06:14:28.804Z,26.98
2022-08-07T06:15:38.558Z,25.39
2022-08-07T06:16:50.401Z,24.42
2022-08-07T06:18:02.163Z,25.16
2022-08-07T06:19:06.625Z,25.62
2022-08-07T06:20:25.485Z,25.90
2022-08-07T06:22:16.272Z,27.50
2022-08-07T06:23:25.227Z,26.83
2022-08-07T06:24:52.379Z,28.08
2022-08-07T06:25:54.470Z,26.86
2022-08-07T06:27:03.510Z,25.42
2022-08-07T06:28:14.805Z,26.04
2022-08-07T06:29:17.165Z,24.95
2022-08-07T06:30:24.220Z,24.76
2022-08-07T06:31:49.680Z,24.55
2022-08-07T06:32:56.634Z,25.39
2022-08-07T06:33:59.783Z,26.49
2022-08-07T06:35:10.501Z,26.85
2022-08-07T06:36:34.914Z,26.94
2022-08-07T06:37:44.106Z,28.18
2022-08-07T06:38:58.862Z,28.54
2022-08-07T06:40:16.869Z,26.66
2022-08-07T06:42:01.510Z,26.15
2022-08-07T06:43:26.750Z,26.28
2022-08-07T06:44:44.704Z,25.51
2022-08-07T06:45:58.582Z,25.88
2022-08-07T06:47:10.402Z,25.66
2022-08-07T06:48:15.288Z,26.53
2022-08-07T06:49:20.834Z,27.91
2022-08-07T06:50:23.067Z,26.52
2022-08-07T06:51:33.254Z,25.71
2022-08-07T06:52:45.163Z,25.91
2022-08-07T06:55:27.736Z,25.17
2022-08-07T06:55:31.492Z,26.34
2022-08-07T06:56:49.703Z,25.48
2022-08-07T06:58:02.700Z,25.74
2022-08-07T07:00:13.923Z,24.18
2022-08-07T07:00:44.996Z,25.31
2022-08-07T07:01:53.844Z,24.90
2022-08-07T07:03:08.449Z,25.25
2022-08-07T07:04:32.747Z,25.57
2022-08-07T07:06:03.376Z,24.92
2022-08-07T07:07:01.299Z,24.35
2022-08-07T07:08:06.565Z,24.55
2022-08-07T07:09:25.206Z,25.58
2022-08-07T07:10:35.211Z,26.04
2022-08-07T07:12:08.478Z,26.38
2022-08-07T07:13:16.762Z,27.29
2022-08-07T07:14:56.546Z,28.57
2022-08-07T07:16:07.547Z,27.97
2022-08-07T07:17:16.332Z,26.98
2022-08-07T07:18:37.683Z,26.94
2022-08-07T07:19:58.356Z,26.57
2022-08-07T07:21:13.786Z,25.36
2022-08-07T07:22:36.909Z,24.79
2022-08-07T07:24:10.105Z,24.36
2022-08-07T07:26:33.330Z,23.34
2022-08-07T07:26:38.123Z,23.66
2022-08-07T07:27:56.240Z,23.50
2022-08-07T07:29:39.780Z,24.60
2022-08-07T07:30:41.005Z,23.93
2022-08-07T07:31:49.533Z,24.00
2022-08-07T07:32:52.279Z,23.63
2022-08-07T07:34:03.679Z,23.79
2022-08-07T07:35:08.912Z,23.50
2022-08-07T07:36:12.738Z,23.23
2022-08-07T07:37:21.720Z,22.78
2022-08-07T07:38:40.893Z,22.42
2022-08-07T07:39:54.370Z,23.76
2022-08-07T07:41:02.414Z,22.68
2022-08-07T07:42:13.760Z,22.46
2022-08-07T07:43:47.476Z,22.86
2022-08-07T07:44:49.676Z,22.69
2022-08-07T07:46:40.125Z,23.22
2022-08-07T07:47:23.874Z,23.13
2022-08-07T07:48:36.105Z,23.47
2022-08-07T07:50:33.065Z,23.99
2022-08-07T07:51:02.894Z,23.80
2022-08-07T07:52:13.223Z,23.38
2022-08-07T07:53:25.579Z,23.84
2022-08-07T07:54:29.750Z,23.39
2022-08-07T07:55:37.630Z,22.80
2022-08-07T07:56:52.660Z,23.11
2022-08-07T07:57:58.446Z,22.07
2022-08-07T07:59:08.284Z,23.62
2022-08-07T08:00:21.122Z,23.41
2022-08-07T08:02:05.084Z,23.25
2022-08-07T08:03:04.828Z,23.44
2022-08-07T08:04:11.959Z,23.45
2022-08-07T08:05:18.212Z,22.89
2022-08-07T08:06:26.909Z,24.17
2022-08-07T08:07:35.681Z,24.09
2022-08-07T08:08:48.192Z,23.31
2022-08-07T08:10:05.538Z,23.16
2022-08-07T08:11:16.309Z,23.51
2022-08-07T08:12:51.198Z,23.62
2022-08-07T08:13:53.760Z,23.01
2022-08-07T08:14:58.114Z,23.81
2022-08-07T08:16:03.029Z,24.16
2022-08-07T08:17:55.468Z,24.19
2022-08-07T08:18:32.104Z,24.17
2022-08-07T08:20:17.251Z,24.45
2022-08-07T08:21:02.122Z,24.89
2022-08-07T08:22:32.664Z,25.45
2022-08-07T08:23:55.079Z,26.52
2022-08-07T08:25:41.943Z,25.89
2022-08-07T08:27:05.910Z,27.94
2022-08-07T08:28:24.133Z,28.27
2022-08-07T08:29:55.512Z,28.18
2022-08-07T08:31:03.059Z,27.72
2022-08-07T08:32:18.672Z,26.76
2022-08-07T08:33:33.370Z,26.46
2022-08-07T08:34:38.148Z,26.66
2022-08-07T08:35:47.238Z,26.29
2022-08-07T08:36:57.607Z,26.46
2022-08-07T08:38:04.848Z,26.41
2022-08-07T08:39:09.553Z,25.95
2022-08-07T08:40:29.910Z,25.59
2022-08-07T08:41:57.556Z,25.91
2022-08-07T08:43:07.282Z,26.64
2022-08-07T08:44:29.695Z,27.22
2022-08-07T08:45:59.066Z,26.99
2022-08-07T08:47:10.052Z,26.73
2022-08-07T08:48:32.589Z,25.88
2022-08-07T08:50:02.413Z,26.31
2022-08-07T08:52:01.099Z,27.19
2022-08-07T08:53:22.895Z,26.51
2022-08-07T08:54:38.666Z,26.51
2022-08-07T08:55:59.460Z,27.61
2022-08-07T08:57:07.421Z,27.51
2022-08-07T08:58:15.687Z,26.90
2022-08-07T08:59:59.129Z,26.84
2022-08-07T09:01:15.361Z,26.62
2022-08-07T09:02:37.968Z,26.80
2022-08-07T09:03:55.221Z,26.51
2022-08-07T09:05:06.428Z,26.84
2022-08-07T09:06:18.568Z,26.31
2022-08-07T09:07:57.993Z,28.76
2022-08-07T09:09:21.152Z,28.76
2022-08-07T09:10:32.982Z,28.84
2022-08-07T09:11:56.726Z,28.89
2022-08-07T09:13:20.276Z,28.36
2022-08-07T09:14:50.693Z,28.59
2022-08-07T09:16:23.252Z,28.50
2022-08-07T09:17:59.698Z,27.87
2022-08-07T09:19:44.806Z,28.91
2022-08-07T09:21:34.470Z,28.52
2022-08-07T09:24:32.117Z,29.14
2022-08-07T09:24:58.632Z,28.08
2022-08-07T09:26:20.656Z,27.74
2022-08-07T09:27:38.396Z,27.91
2022-08-07T09:30:00.678Z,28.58
2022-08-07T09:30:47.631Z,28.54
2022-08-07T09:32:02.405Z,28.72
2022-08-07T09:33:16.624Z,28.96
2022-08-07T09:34:58.004Z,29.95
2022-08-07T09:36:16.011Z,30.17
2022-08-07T09:37:33.402Z,30.34
2022-08-07T09:39:11.296Z,30.69
2022-08-07T09:40:30.348Z,30.78
2022-08-07T09:41:43.531Z,30.84
2022-08-07T09:43:18.941Z,30.40
2022-08-07T09:47:27.299Z,30.53
2022-08-07T09:47:52.191Z,31.41
2022-08-07T09:48:12.309Z,31.94
2022-08-07T09:50:00.852Z,32.24
2022-08-07T09:52:16.638Z,35.42
2022-08-07T09:53:01.760Z,37.62
2022-08-07T09:54:16.448Z,41.12
2022-08-07T09:55:29.265Z,44.64
2022-08-07T09:56:44.154Z,40.07
2022-08-07T09:58:00.434Z,42.13
2022-08-07T09:59:46.109Z,44.66
2022-08-07T10:01:51.596Z,46.62
2022-08-07T10:04:05.252Z,49.72
2022-08-07T10:05:18.782Z,53.56
2022-08-07T10:06:56.963Z,56.05
2022-08-07T10:08:29.061Z,56.85
2022-08-07T10:10:00.375Z,55.54
2022-08-07T10:11:16.573Z,53.53
2022-08-07T10:12:52.557Z,54.73
2022-08-07T10:14:13.990Z,67.60
2022-08-07T10:15:44.538Z,65.51
2022-08-07T10:17:20.425Z,67.76
2022-08-07T10:18:59.565Z,79.52
2022-08-07T10:20:30.332Z,68.76
2022-08-07T10:22:24.867Z,73.61
2022-08-07T10:24:06.964Z,78.18
2022-08-07T10:25:43.267Z,80.41
2022-08-07T10:27:24.726Z,79.71
2022-08-07T10:28:56.246Z,77.74
2022-08-07T10:30:13.540Z,78.14
2022-08-07T10:31:57.667Z,81.65
2022-08-07T10:33:23.601Z,77.99
2022-08-07T10:35:20.488Z,74.87
2022-08-07T10:36:56.855Z,67.41
2022-08-07T10:38:34.944Z,80.75
2022-08-07T10:40:05.661Z,86.15
2022-08-07T10:41:51.790Z,77.27
2022-08-07T10:42:44.993Z,74.07
2022-08-07T10:44:28.813Z,71.50
2022-08-07T10:45:57.968Z,71.37
2022-08-07T10:47:51.440Z,69.81
2022-08-07T10:48:55.804Z,71.10
2022-08-07T10:50:09.075Z,67.96
2022-08-07T10:51:39.071Z,71.14
2022-08-07T10:53:21.630Z,64.41
2022-08-07T10:55:01.370Z,55.00
2022-08-07T10:56:33.567Z,56.38
2022-08-07T10:57:39.901Z,58.35
2022-08-07T10:59:07.632Z,51.07
2022-08-07T11:00:36.936Z,49.58
2022-08-07T11:02:27.226Z,46.91
2022-08-07T11:03:52.642Z,45.05
2022-08-07T11:05:10.732Z,42.84
2022-08-07T11:06:29.795Z,41.73
2022-08-07T11:08:12.982Z,42.56
2022-08-07T11:10:07.747Z,43.92
2022-08-07T11:11:06.171Z,41.88
2022-08-07T11:12:32.234Z,42.33
2022-08-07T11:14:44.810Z,42.55
2022-08-07T11:15:18.074Z,41.85
2022-08-07T11:16:32.121Z,41.85
2022-08-07T11:18:03.702Z,41.35
2022-08-07T11:19:27.238Z,41.51
2022-08-07T11:21:14.121Z,38.97
2022-08-07T11:22:43.932Z,39.21
2022-08-07T11:24:20.900Z,38.16
2022-08-07T11:25:42.467Z,39.10
2022-08-07T11:27:07.597Z,40.03
2022-08-07T11:28:30.205Z,40.03
2022-08-07T11:30:10.031Z,40.59
2022-08-07T11:31:27.278Z,39.04
2022-08-07T11:32:41.123Z,37.05
2022-08-07T11:34:01.226Z,38.12
2022-08-07T11:35:26.757Z,37.11
2022-08-07T11:36:52.444Z,35.98
2022-08-07T11:38:18.075Z,35.69
2022-08-07T11:40:00.504Z,35.00
2022-08-07T11:41:22.263Z,37.35
2022-08-07T11:42:55.220Z,35.77
2022-08-07T11:44:18.996Z,35.38
2022-08-07T11:45:53.953Z,35.75
2022-08-07T11:47:01.966Z,34.18
2022-08-07T11:48:29.762Z,33.91
2022-08-07T11:50:31.610Z,33.78
2022-08-07T11:51:48.380Z,34.48
2022-08-07T11:53:25.414Z,34.96
2022-08-07T11:54:58.757Z,36.71
2022-08-07T11:56:26.965Z,35.35
2022-08-07T11:58:00.043Z,33.66
2022-08-07T12:00:09.999Z,33.07
2022-08-07T12:01:20.150Z,33.74
2022-08-07T12:02:52.522Z,33.24
2022-08-07T12:04:07.628Z,33.36
2022-08-07T12:05:28.767Z,32.91
2022-08-07T12:07:01.105Z,36.02
2022-08-07T12:08:31.438Z,38.89
2022-08-07T12:10:15.009Z,40.61
2022-08-07T12:11:23.943Z,42.18
2022-08-07T12:12:42.989Z,42.71
2022-08-07T12:14:18.997Z,44.03
2022-08-07T12:15:35.896Z,45.01
2022-08-07T12:17:20.413Z,45.35
2022-08-07T12:18:38.563Z,45.98
2022-08-07T12:20:02.753Z,47.05
2022-08-07T12:21:56.005Z,47.19
2022-08-07T12:23:14.726Z,46.95
2022-08-07T12:24:40.169Z,47.49
2022-08-07T12:26:22.811Z,48.22
2022-08-07T12:27:28.095Z,47.88
2022-08-07T12:29:03.947Z,47.52
2022-08-07T12:30:09.202Z,48.87
2022-08-07T12:31:23.584Z,48.40
2022-08-07T12:32:38.300Z,47.77
2022-08-07T12:34:01.153Z,47.93
2022-08-07T12:35:08.345Z,49.20
2022-08-07T12:36:11.885Z,49.06
2022-08-07T12:37:23.558Z,49.86
2022-08-07T12:38:42.629Z,50.71
2022-08-07T12:39:50.851Z,50.05
2022-08-07T12:40:56.139Z,51.70
2022-08-07T12:42:02.546Z,51.17
2022-08-07T12:43:09.268Z,51.34
2022-08-07T12:44:17.097Z,51.67
2022-08-07T12:45:27.214Z,51.73
2022-08-07T12:46:51.976Z,51.84
2022-08-07T12:48:27.712Z,51.92
2022-08-07T12:50:33.713Z,51.11
2022-08-07T12:52:13.785Z,51.67
2022-08-07T12:53:22.129Z,51.82
2022-08-07T12:54:38.170Z,52.37
2022-08-07T12:56:03.311Z,52.62
2022-08-07T12:57:10.112Z,51.04
2022-08-07T12:58:16.407Z,51.02
2022-08-07T12:59:22.589Z,50.50
2022-08-07T13:00:54.346Z,49.88
2022-08-07T13:02:11.476Z,49.16
2022-08-07T13:03:59.123Z,49.67
2022-08-07T13:05:01.567Z,50.28
2022-08-07T13:06:27.045Z,51.04
2022-08-07T13:08:12.215Z,51.43
2022-08-07T13:10:28.283Z,53.65
2022-08-07T13:12:02.476Z,53.83
2022-08-07T13:13:48.874Z,53.42
2022-08-07T13:15:08.060Z,54.81
2022-08-07T13:16:19.032Z,54.83
2022-08-07T13:17:49.745Z,55.35
2022-08-07T13:19:18.069Z,56.26
2022-08-07T13:20:35.417Z,56.54
2022-08-07T13:21:57.463Z,56.88
2022-08-07T13:24:01.057Z,57.36
2022-08-07T13:24:57.065Z,56.63
2022-08-07T13:26:15.987Z,57.17
2022-08-07T13:28:11.390Z,57.15
2022-08-07T13:29:27.394Z,58.90
2022-08-07T13:30:43.966Z,59.99
2022-08-07T13:32:31.611Z,62.25
2022-08-07T13:34:33.141Z,63.25
2022-08-07T13:36:00.403Z,60.55
2022-08-07T13:37:42.131Z,60.21
2022-08-07T13:38:54.361Z,59.00
2022-08-07T13:40:35.676Z,60.23
2022-08-07T13:41:50.804Z,59.23
2022-08-07T13:43:01.722Z,58.57
2022-08-07T13:44:10.394Z,59.93
2022-08-07T13:46:21.529Z,58.58
2022-08-07T13:46:49.482Z,60.01
2022-08-07T13:48:06.033Z,59.98
2022-08-07T13:50:35.276Z,59.87
2022-08-07T13:50:44.213Z,59.59
2022-08-07T13:52:04.694Z,60.07
2022-08-07T13:54:01.000Z,60.48
2022-08-07T13:54:57.588Z,60.18
2022-08-07T13:56:00.251Z,59.14
2022-08-07T13:57:14.460Z,59.22
2022-08-07T13:58:37.262Z,59.34
2022-08-07T13:59:54.907Z,59.89
2022-08-07T14:01:00.096Z,59.98
2022-08-07T14:02:19.519Z,59.48
2022-08-07T14:04:05.562Z,61.00
2022-08-07T14:05:06.564Z,59.56
2022-08-07T14:06:13.720Z,59.26
2022-08-07T14:07:22.924Z,59.30
2022-08-07T14:08:28.139Z,59.22
2022-08-07T14:10:01.325Z,58.67
2022-08-07T14:11:14.648Z,58.25
2022-08-07T14:12:49.434Z,58.09
2022-08-07T14:14:06.966Z,57.99
2022-08-07T14:15:18.666Z,58.07
2022-08-07T14:16:31.168Z,58.60
2022-08-07T14:18:15.989Z,57.75
2022-08-07T14:19:03.239Z,57.86
2022-08-07T14:20:39.812Z,58.18
2022-08-07T14:22:04.008Z,58.54
2022-08-07T14:23:31.749Z,58.84
2022-08-07T14:25:02.004Z,59.08
2022-08-07T14:26:28.195Z,58.95
2022-08-07T14:28:12.452Z,59.01
2022-08-07T14:30:04.955Z,58.69
2022-08-07T14:30:52.047Z,59.40
2022-08-07T14:32:03.545Z,59.13
2022-08-07T14:33:08.387Z,59.25
2022-08-07T14:34:20.281Z,59.00
2022-08-07T14:35:43.037Z,59.41
2022-08-07T14:36:56.437Z,58.98
2022-08-07T14:38:05.910Z,59.07
2022-08-07T14:40:18.192Z,59.12
2022-08-07T14:40:43.009Z,58.95
2022-08-07T14:42:19.524Z,58.87
2022-08-07T14:45:21.625Z,60.17
2022-08-07T14:46:31.169Z,61.04
2022-08-07T14:47:35.016Z,61.25
2022-08-07T14:48:40.835Z,61.98
2022-08-07T14:51:22.493Z,61.62
2022-08-07T14:52:28.848Z,61.74
2022-08-07T14:54:06.596Z,61.46
2022-08-07T14:54:58.736Z,61.99
2022-08-07T14:56:06.152Z,61.16
2022-08-07T14:57:18.663Z,61.54
2022-08-07T14:58:27.516Z,61.49
2022-08-07T15:00:03.300Z,61.62
2022-08-07T15:01:00.381Z,61.38
2022-08-07T15:02:33.220Z,61.59
2022-08-07T15:03:51.418Z,61.56
2022-08-07T15:05:01.823Z,61.26
2022-08-07T15:06:49.091Z,61.55
2022-08-07T15:09:57.285Z,60.74
2022-08-07T15:12:25.658Z,60.99
2022-08-07T15:15:21.131Z,61.62
2022-08-07T15:16:55.221Z,61.51
2022-08-07T15:18:02.878Z,62.03
2022-08-07T15:19:16.787Z,61.91
2022-08-07T15:20:32.823Z,62.02
2022-08-07T15:23:20.164Z,61.91
2022-08-07T15:25:56.305Z,61.52
2022-08-07T15:27:10.088Z,61.45
2022-08-07T15:28:35.103Z,61.68
2022-08-07T15:30:09.685Z,61.60
2022-08-07T15:31:08.575Z,61.49
2022-08-07T15:32:14.952Z,60.97
2022-08-07T15:35:05.556Z,61.41
2022-08-07T15:36:10.258Z,61.08
2022-08-07T15:37:15.802Z,61.60
2022-08-07T15:38:51.391Z,61.83
2022-08-07T15:40:11.291Z,61.83
2022-08-07T15:41:24.051Z,62.37
2022-08-07T15:42:47.583Z,62.21
2022-08-07T15:44:08.529Z,62.38
2022-08-07T15:45:56.752Z,62.32
2022-08-07T15:47:16.945Z,62.33
2022-08-07T15:49:13.209Z,62.39
2022-08-07T15:50:37.613Z,62.56
2022-08-07T15:53:07.977Z,63.22
2022-08-07T15:54:12.981Z,63.55
2022-08-07T15:55:20.351Z,63.44
2022-08-07T15:56:34.880Z,64.18
2022-08-07T15:57:48.882Z,64.24
2022-08-07T15:58:55.373Z,64.60
2022-08-07T15:59:59.526Z,64.57
2022-08-07T16:01:20.064Z,64.83
2022-08-07T16:02:33.854Z,64.72
2022-08-07T16:03:46.152Z,64.41
2022-08-07T16:05:01.067Z,64.48
2022-08-07T16:06:09.470Z,64.60
2022-08-07T16:08:31.925Z,64.73
2022-08-07T16:08:45.471Z,64.26
2022-08-07T16:10:02.860Z,64.49
2022-08-07T16:11:48.697Z,64.89
2022-08-07T16:13:41.784Z,65.62
2022-08-07T16:15:56.398Z,65.29
2022-08-07T16:18:01.578Z,65.66
2022-08-07T16:19:42.424Z,65.98
2022-08-07T16:21:44.492Z,65.48
2022-08-07T16:23:09.927Z,65.93
2022-08-07T16:24:35.542Z,66.10
2022-08-07T16:26:02.072Z,66.01
2022-08-07T16:27:18.610Z,65.54
2022-08-07T16:30:07.581Z,66.07
2022-08-07T16:30:30.599Z,65.81
2022-08-07T16:32:05.354Z,65.60
2022-08-07T16:34:02.679Z,65.99
2022-08-07T16:35:56.880Z,65.65
2022-08-07T16:37:01.859Z,65.81
2022-08-07T16:38:59.983Z,66.01
2022-08-07T16:40:30.574Z,65.80
2022-08-07T16:42:08.775Z,66.12
2022-08-07T16:44:04.285Z,65.66
2022-08-07T16:46:40.967Z,67.03
2022-08-07T16:47:45.479Z,66.19
2022-08-07T16:50:26.726Z,66.49
2022-08-07T16:54:36.375Z,67.70
2022-08-07T16:56:03.665Z,67.52
2022-08-07T16:58:03.242Z,66.91
2022-08-07T16:59:14.723Z,67.09
2022-08-07T17:00:30.208Z,67.66
2022-08-07T17:01:56.652Z,67.08
2022-08-07T17:03:09.308Z,66.90
2022-08-07T17:04:58.067Z,67.04
2022-08-07T17:06:28.927Z,66.93
2022-08-07T17:07:55.937Z,67.70
2022-08-07T17:10:06.764Z,67.58
2022-08-07T17:10:57.847Z,67.80
2022-08-07T17:12:35.594Z,67.48